Time;durP1;ratioP1;P1;durP2;ratioP2;P2;SDS_P1;SDS_P2;PMS_P1;PMS_P2;Temp;Humidity;BMP_temperature;BMP_pressure;BME280_temperature;BME280_humidity;BME280_pressure;Samples;Min_cycle;Max_cycle;Signal;HPM_P1;HPM_P2
2022/09/14 00:01:58;;;;;;;6.70;1.30;;;17.80;99.90;;;;;;5050275;28;20028;-77
2022/09/14 00:04:24;;;;;;;9.57;1.35;;;17.70;99.90;;;;;;5047655;28;20036;-77
2022/09/14 00:06:50;;;;;;;5.25;1.40;;;17.70;99.90;;;;;;5033211;28;20025;-77
2022/09/14 00:09:19;;;;;;;5.70;1.40;;;17.70;99.90;;;;;;5043116;28;20021;-77
2022/09/14 00:11:45;;;;;;;7.50;1.50;;;17.70;99.90;;;;;;5038453;28;20037;-78
2022/09/14 00:14:11;;;;;;;7.65;1.40;;;17.70;99.90;;;;;;5038776;28;20029;-77
2022/09/14 00:16:39;;;;;;;7.32;1.30;;;17.70;99.90;;;;;;5040745;28;20037;-78
2022/09/14 00:19:12;;;;;;;7.10;1.40;;;17.70;99.90;;;;;;5036465;28;20030;-78
2022/09/14 00:21:38;;;;;;;5.32;1.45;;;17.70;99.90;;;;;;5051638;28;20029;-78
2022/09/14 00:24:06;;;;;;;3.80;1.30;;;17.70;99.90;;;;;;5037420;28;20055;-77
2022/09/14 00:26:31;;;;;;;10.02;1.40;;;17.70;99.90;;;;;;5038233;28;20029;-78
2022/09/14 00:29:03;;;;;;;8.40;1.52;;;17.60;99.90;;;;;;5051441;28;20496;-78
2022/09/14 00:31:28;;;;;;;7.45;1.67;;;17.60;99.90;;;;;;5051578;28;20060;-78
2022/09/14 00:33:54;;;;;;;5.35;1.30;;;17.60;99.90;;;;;;5049748;28;20060;-78
2022/09/14 00:36:23;;;;;;;8.35;1.50;;;17.60;99.90;;;;;;5050238;28;20517;-78
2022/09/14 00:38:50;;;;;;;9.63;1.50;;;17.50;99.90;;;;;;5051395;28;20051;-78
2022/09/14 00:41:19;;;;;;;8.43;1.20;;;17.50;99.90;;;;;;5041050;28;20021;-78
2022/09/14 00:44:00;;;;;;;3.15;1.30;;;17.40;99.90;;;;;;5030144;28;20477;-78
2022/09/14 00:46:31;;;;;;;5.47;1.40;;;17.40;99.90;;;;;;5030132;28;20072;-78
2022/09/14 00:49:00;;;;;;;8.60;1.67;;;17.40;99.90;;;;;;5034743;28;20056;-78
2022/09/14 00:51:28;;;;;;;3.55;1.27;;;17.30;99.90;;;;;;5030151;28;20034;-77
2022/09/14 00:53:54;;;;;;;6.78;1.30;;;17.30;99.90;;;;;;5034233;28;20022;-77
2022/09/14 00:56:20;;;;;;;7.13;1.60;;;17.30;99.90;;;;;;5029873;28;20033;-78
2022/09/14 00:58:49;;;;;;;9.48;1.60;;;17.40;99.90;;;;;;5029893;28;20083;-77
2022/09/14 01:01:15;;;;;;;3.88;1.40;;;17.40;99.90;;;;;;5034419;28;20025;-78
2022/09/14 01:03:41;;;;;;;4.75;1.50;;;17.40;99.90;;;;;;5036562;28;20532;-78
2022/09/14 01:06:20;;;;;;;3.60;1.35;;;17.40;99.90;;;;;;5029567;28;20079;-78
2022/09/14 01:09:09;;;;;;;5.65;1.40;;;17.40;99.90;;;;;;5029297;28;20485;-78
2022/09/14 01:11:43;;;;;;;7.38;1.80;;;17.40;99.90;;;;;;5027441;28;20055;-77
2022/09/14 01:14:32;;;;;;;5.87;1.63;;;17.40;99.90;;;;;;5030065;28;20035;-77
2022/09/14 01:17:04;;;;;;;8.50;1.70;;;17.40;99.90;;;;;;5022552;28;20041;-76
2022/09/14 01:19:58;;;;;;;4.28;1.50;;;17.30;99.90;;;;;;5030118;28;20473;-77
2022/09/14 01:22:35;;;;;;;6.00;1.60;;;17.30;99.90;;;;;;5029639;28;20469;-78
2022/09/14 01:25:33;;;;;;;7.68;1.35;;;17.20;99.90;;;;;;5030072;28;20030;-78
2022/09/14 01:28:02;;;;;;;4.70;1.67;;;17.20;99.90;;;;;;5030434;28;20505;-77
2022/09/14 01:30:31;;;;;;;5.90;1.40;;;17.20;99.90;;;;;;5030511;28;20024;-78
2022/09/14 01:33:15;;;;;;;6.43;1.33;;;17.20;99.90;;;;;;5030602;28;20355;-77
2022/09/14 01:35:51;;;;;;;6.55;1.45;;;17.20;99.90;;;;;;5030133;28;20044;-78
2022/09/14 01:38:28;;;;;;;6.70;1.45;;;17.20;99.90;;;;;;5030393;28;20029;-77
2022/09/14 01:40:56;;;;;;;8.20;1.65;;;17.20;99.90;;;;;;5030214;28;20033;-78
2022/09/14 01:43:35;;;;;;;6.60;1.30;;;17.20;99.90;;;;;;5030149;28;20040;-77
2022/09/14 01:46:28;;;;;;;5.20;1.38;;;17.20;99.90;;;;;;5030291;28;20108;-77
2022/09/14 01:49:22;;;;;;;5.85;1.83;;;17.20;99.90;;;;;;5030955;28;20103;-77
2022/09/14 01:51:53;;;;;;;5.18;1.70;;;17.20;99.90;;;;;;5036744;28;20088;-78
2022/09/14 01:54:49;;;;;;;6.15;1.58;;;17.20;99.90;;;;;;5030081;28;20091;-78
2022/09/14 01:57:37;;;;;;;7.07;1.50;;;17.20;99.90;;;;;;5024247;28;20053;-77
2022/09/14 02:00:09;;;;;;;5.25;1.48;;;17.20;99.90;;;;;;5031327;28;20116;-78
2022/09/14 02:02:43;;;;;;;7.30;1.55;;;17.20;99.90;;;;;;5031360;28;20409;-77
2022/09/14 02:05:30;;;;;;;6.75;1.70;;;17.20;99.90;;;;;;5033094;28;20478;-77
2022/09/14 02:07:56;;;;;;;5.95;1.40;;;17.20;99.90;;;;;;5030273;28;20097;-78
2022/09/14 02:10:23;;;;;;;6.50;1.40;;;17.20;99.90;;;;;;5043837;28;20065;-78
2022/09/14 02:12:51;;;;;;;5.95;1.63;;;17.20;99.90;;;;;;5050737;28;20029;-77
2022/09/14 02:15:16;;;;;;;7.90;1.65;;;17.20;99.90;;;;;;5043343;28;20044;-77
2022/09/14 02:17:43;;;;;;;7.03;1.42;;;17.20;99.90;;;;;;5047551;28;20544;-77
2022/09/14 02:20:34;;;;;;;5.43;1.50;;;17.20;99.90;;;;;;5050654;28;20392;-78
2022/09/14 02:22:59;;;;;;;12.30;1.60;;;17.20;99.90;;;;;;5050865;28;20056;-77
2022/09/14 02:25:25;;;;;;;7.65;1.35;;;17.20;99.90;;;;;;5044522;28;20501;-77
2022/09/14 02:27:51;;;;;;;5.32;1.60;;;17.20;99.90;;;;;;5050050;28;20059;-77
2022/09/14 02:30:19;;;;;;;8.95;1.77;;;17.20;99.90;;;;;;5052067;28;20542;-78
2022/09/14 02:32:53;;;;;;;8.60;1.60;;;17.20;99.90;;;;;;5046661;28;20381;-77
2022/09/14 02:35:33;;;;;;;8.27;2.20;;;17.20;99.90;;;;;;5032124;28;20465;-77
2022/09/14 02:38:03;;;;;;;6.07;1.40;;;17.20;99.90;;;;;;5037117;28;20033;-78
2022/09/14 02:41:01;;;;;;;12.60;1.83;;;17.20;99.90;;;;;;5045967;28;20055;-78
2022/09/14 02:43:39;;;;;;;5.43;1.50;;;17.20;99.90;;;;;;4987769;28;20038;-77
2022/09/14 02:46:22;;;;;;;5.70;1.58;;;17.20;99.90;;;;;;4994313;28;20049;-78
2022/09/14 02:48:48;;;;;;;8.00;1.60;;;17.10;99.90;;;;;;5005795;28;20051;-78
2022/09/14 02:51:34;;;;;;;6.43;1.25;;;17.10;99.90;;;;;;4991855;28;20033;-78
2022/09/14 02:54:05;;;;;;;5.38;1.40;;;17.10;99.90;;;;;;5009986;28;20609;-78
2022/09/14 02:56:33;;;;;;;6.30;1.45;;;17.10;99.90;;;;;;5001156;28;20123;-78
2022/09/14 02:58:58;;;;;;;5.72;1.60;;;17.10;99.90;;;;;;5009599;28;20038;-78
2022/09/14 03:01:24;;;;;;;6.72;1.70;;;17.10;99.90;;;;;;5011057;28;20402;-78
2022/09/14 03:03:50;;;;;;;9.85;1.40;;;17.10;99.90;;;;;;4997086;28;20033;-77
2022/09/14 03:06:15;;;;;;;3.45;1.23;;;17.10;99.90;;;;;;4997751;28;20050;-78
2022/09/14 03:08:42;;;;;;;5.90;1.45;;;17.10;99.90;;;;;;4995735;28;20030;-79
2022/09/14 03:11:08;;;;;;;5.30;1.55;;;17.10;99.90;;;;;;5009965;28;20486;-77
2022/09/14 03:13:35;;;;;;;7.68;1.73;;;17.10;99.90;;;;;;5009121;28;20482;-77
2022/09/14 03:16:05;;;;;;;4.93;1.30;;;17.10;99.90;;;;;;4996958;28;20029;-77
2022/09/14 03:18:31;;;;;;;4.85;1.30;;;17.10;99.90;;;;;;5007457;28;20060;-78
2022/09/14 03:21:08;;;;;;;3.78;1.30;;;17.10;99.90;;;;;;5048921;28;20025;-78
2022/09/14 03:23:39;;;;;;;4.15;1.20;;;17.10;99.90;;;;;;5044764;28;20111;-77
2022/09/14 03:26:09;;;;;;;8.20;1.38;;;17.10;99.90;;;;;;5054533;28;20029;-78
2022/09/14 03:28:35;;;;;;;4.35;1.10;;;17.10;99.90;;;;;;5041465;28;20075;-78
2022/09/14 03:31:02;;;;;;;5.32;1.27;;;17.10;99.90;;;;;;5047808;28;20025;-78
2022/09/14 03:33:28;;;;;;;4.55;1.30;;;17.10;99.90;;;;;;5038825;28;20032;-77
2022/09/14 03:35:54;;;;;;;4.88;1.13;;;17.10;99.90;;;;;;5044829;28;20029;-77
2022/09/14 03:38:20;;;;;;;6.93;1.23;;;17.00;99.90;;;;;;5049220;28;20055;-77
2022/09/14 03:40:47;;;;;;;6.95;1.40;;;17.00;99.90;;;;;;5037914;28;20021;-77
2022/09/14 03:43:12;;;;;;;9.38;1.50;;;17.00;99.90;;;;;;5035906;28;20029;-78
2022/09/14 03:45:38;;;;;;;5.90;1.40;;;17.00;99.90;;;;;;5045502;28;20030;-77
2022/09/14 03:48:04;;;;;;;5.03;1.05;;;17.00;99.90;;;;;;5046197;28;20076;-77
2022/09/14 03:50:30;;;;;;;5.45;1.10;;;17.00;99.90;;;;;;5035784;28;20501;-77
2022/09/14 03:52:56;;;;;;;7.05;1.35;;;17.00;99.90;;;;;;5044474;28;20025;-77
2022/09/14 03:55:22;;;;;;;8.70;1.08;;;17.00;99.90;;;;;;5052026;28;20061;-77
2022/09/14 03:57:51;;;;;;;3.35;1.10;;;17.00;99.90;;;;;;5052214;28;20036;-78
2022/09/14 04:00:17;;;;;;;3.90;1.00;;;17.00;99.90;;;;;;5039775;28;20034;-78
2022/09/14 04:02:44;;;;;;;8.38;0.95;;;17.00;99.90;;;;;;5042324;28;20081;-77
2022/09/14 04:05:09;;;;;;;3.17;1.13;;;17.00;99.90;;;;;;5046999;28;20055;-78
2022/09/14 04:07:35;;;;;;;7.32;1.40;;;17.00;99.90;;;;;;5038679;28;20143;-78
2022/09/14 04:10:01;;;;;;;3.35;0.88;;;17.00;99.90;;;;;;5048342;28;20052;-77
2022/09/14 04:12:26;;;;;;;4.70;1.20;;;17.00;99.90;;;;;;5038030;28;20018;-77
2022/09/14 04:14:52;;;;;;;6.03;1.13;;;17.00;99.90;;;;;;5046892;28;20040;-77
2022/09/14 04:17:17;;;;;;;4.07;1.10;;;17.00;99.90;;;;;;5046022;28;20052;-77
2022/09/14 04:19:43;;;;;;;5.47;1.08;;;17.00;99.90;;;;;;5045841;28;20033;-78
2022/09/14 04:22:09;;;;;;;7.88;1.25;;;17.00;99.90;;;;;;5038316;28;20051;-77
2022/09/14 04:24:35;;;;;;;3.65;1.10;;;17.00;99.90;;;;;;5037989;28;20462;-77
2022/09/14 04:27:00;;;;;;;7.07;1.20;;;17.00;99.90;;;;;;5032596;28;20530;-77
2022/09/14 04:29:29;;;;;;;5.80;1.45;;;17.00;99.90;;;;;;5038752;28;20026;-77
2022/09/14 04:31:54;;;;;;;6.15;1.40;;;17.00;99.90;;;;;;5035893;28;20034;-77
2022/09/14 04:34:20;;;;;;;5.60;1.20;;;17.00;99.90;;;;;;5037133;28;20109;-78
2022/09/14 04:36:45;;;;;;;7.22;1.63;;;17.00;99.90;;;;;;5035197;28;20045;-78
2022/09/14 04:39:12;;;;;;;6.57;1.55;;;17.00;99.90;;;;;;5034588;28;20032;-77
2022/09/14 04:41:39;;;;;;;4.22;1.15;;;17.00;99.90;;;;;;5032530;28;20029;-78
2022/09/14 04:44:04;;;;;;;9.63;1.60;;;17.00;99.90;;;;;;5041343;28;20037;-77
2022/09/14 04:46:33;;;;;;;3.95;1.38;;;17.00;99.90;;;;;;5050724;28;20082;-76
2022/09/14 04:48:59;;;;;;;9.23;1.70;;;17.00;99.90;;;;;;5028942;28;20390;-78
2022/09/14 04:51:27;;;;;;;6.90;1.88;;;17.00;99.90;;;;;;5032009;28;20101;-78
2022/09/14 04:53:55;;;;;;;9.55;1.83;;;17.00;99.90;;;;;;5038039;28;20025;-78
2022/09/14 04:56:22;;;;;;;8.90;1.80;;;17.00;99.90;;;;;;5047823;28;20032;-77
2022/09/14 04:58:51;;;;;;;5.15;1.75;;;17.00;99.90;;;;;;5044181;28;20033;-78
2022/09/14 05:01:19;;;;;;;5.88;1.45;;;17.10;99.90;;;;;;5047456;28;20056;-78
2022/09/14 05:03:45;;;;;;;7.03;1.50;;;17.00;99.90;;;;;;5043270;28;20066;-78
2022/09/14 05:06:15;;;;;;;5.10;1.38;;;17.00;99.90;;;;;;5047570;28;20076;-78
2022/09/14 05:08:42;;;;;;;5.45;1.38;;;17.00;99.90;;;;;;5043182;28;20051;-78
2022/09/14 05:11:11;;;;;;;6.05;1.45;;;17.00;99.90;;;;;;5048669;28;20032;-78
2022/09/14 05:13:36;;;;;;;8.65;1.50;;;17.00;99.90;;;;;;5044883;28;20025;-79
2022/09/14 05:16:09;;;;;;;5.80;1.55;;;17.00;99.90;;;;;;5048723;28;20029;-78
2022/09/14 05:18:35;;;;;;;9.73;1.75;;;17.00;99.90;;;;;;5036925;28;20041;-78
2022/09/14 05:21:06;;;;;;;6.05;1.80;;;17.00;99.90;;;;;;5039694;28;20031;-79
2022/09/14 05:23:31;;;;;;;7.88;2.20;;;17.00;99.90;;;;;;5037300;28;20021;-79
2022/09/14 05:25:58;;;;;;;5.72;1.75;;;17.00;99.90;;;;;;5033395;28;20468;-78
2022/09/14 05:28:25;;;;;;;7.07;1.60;;;16.90;99.90;;;;;;5036457;28;20018;-78
2022/09/14 05:30:51;;;;;;;6.97;1.88;;;16.90;99.90;;;;;;5041375;28;20014;-79
2022/09/14 05:33:17;;;;;;;8.32;1.90;;;16.90;99.90;;;;;;5042460;28;20384;-79
2022/09/14 05:35:43;;;;;;;5.53;2.15;;;16.90;99.90;;;;;;5041977;28;20026;-79
2022/09/14 05:38:08;;;;;;;7.63;1.88;;;16.90;99.90;;;;;;5038426;28;20026;-79
2022/09/14 05:40:34;;;;;;;5.40;2.10;;;16.90;99.90;;;;;;5036200;28;20212;-78
2022/09/14 05:42:59;;;;;;;6.60;1.90;;;16.90;99.90;;;;;;5043015;28;20017;-78
2022/09/14 05:45:25;;;;;;;7.13;1.95;;;16.90;99.90;;;;;;5037083;28;20482;-77
2022/09/14 05:47:50;;;;;;;4.68;1.70;;;16.90;99.90;;;;;;5026985;28;21249;-77
2022/09/14 05:50:16;;;;;;;10.50;2.00;;;16.90;99.90;;;;;;5069921;28;20041;-77
2022/09/14 05:52:42;;;;;;;5.38;1.90;;;16.90;99.90;;;;;;5025862;28;20381;-77
2022/09/14 05:55:07;;;;;;;4.50;1.67;;;16.90;99.90;;;;;;5032156;28;20061;-77
2022/09/14 05:57:33;;;;;;;9.18;2.00;;;16.90;99.90;;;;;;5034028;28;20025;-77
2022/09/14 05:59:59;;;;;;;6.65;1.67;;;16.90;99.90;;;;;;5037937;28;20099;-77
2022/09/14 06:02:24;;;;;;;10.15;1.80;;;16.90;99.90;;;;;;5035817;28;20080;-77
2022/09/14 06:04:50;;;;;;;6.28;1.80;;;16.90;99.90;;;;;;5029349;28;20068;-77
2022/09/14 06:07:16;;;;;;;9.25;1.80;;;16.80;99.90;;;;;;5037639;28;20092;-77
2022/09/14 06:09:41;;;;;;;5.47;1.67;;;16.80;99.90;;;;;;5030459;28;20036;-77
2022/09/14 06:12:07;;;;;;;5.95;1.77;;;16.80;99.90;;;;;;5034241;28;20730;-78
2022/09/14 06:14:33;;;;;;;7.63;1.60;;;16.80;99.90;;;;;;5029662;28;20121;-77
2022/09/14 06:16:59;;;;;;;6.82;1.90;;;16.80;99.90;;;;;;5031366;28;20049;-77
2022/09/14 06:19:24;;;;;;;11.65;1.80;;;16.80;99.90;;;;;;5030289;28;20489;-78
2022/09/14 06:21:50;;;;;;;8.20;1.80;;;16.80;99.90;;;;;;5028367;28;20026;-77
2022/09/14 06:24:15;;;;;;;15.35;1.88;;;16.80;99.90;;;;;;5029886;28;20029;-75
2022/09/14 06:26:41;;;;;;;11.70;2.00;;;16.80;99.90;;;;;;5028045;28;20493;-74
2022/09/14 06:29:07;;;;;;;9.73;1.88;;;16.80;99.90;;;;;;5029655;28;20021;-76
2022/09/14 06:31:32;;;;;;;7.20;1.77;;;16.80;99.90;;;;;;5032377;28;20401;-76
2022/09/14 06:33:58;;;;;;;11.95;1.80;;;16.80;99.90;;;;;;5041911;28;20564;-76
2022/09/14 06:36:26;;;;;;;4.53;1.55;;;16.90;99.90;;;;;;5035414;28;20055;-77
2022/09/14 06:38:53;;;;;;;14.20;3.38;;;16.80;99.90;;;;;;5023451;28;20100;-76
2022/09/14 06:41:21;;;;;;;7.72;2.63;;;16.90;99.90;;;;;;5034112;28;20025;-76
2022/09/14 06:43:47;;;;;;;11.18;2.13;;;16.90;99.90;;;;;;5030565;28;20428;-77
2022/09/14 06:46:20;;;;;;;10.05;2.15;;;17.00;99.90;;;;;;5030210;28;20029;-77
2022/09/14 06:48:50;;;;;;;6.68;1.70;;;17.00;99.90;;;;;;5032694;28;20049;-76
2022/09/14 06:51:20;;;;;;;6.75;1.70;;;17.00;99.90;;;;;;5032899;28;20555;-76
2022/09/14 06:53:46;;;;;;;9.75;1.73;;;17.10;99.90;;;;;;5030868;28;20653;-76
2022/09/14 06:56:13;;;;;;;10.52;1.90;;;17.10;99.90;;;;;;5045810;28;20039;-76
2022/09/14 06:58:39;;;;;;;4.30;1.58;;;17.10;99.90;;;;;;5034295;28;20051;-76
2022/09/14 07:01:08;;;;;;;5.80;1.45;;;17.10;99.90;;;;;;5040687;28;20018;-76
2022/09/14 07:03:35;;;;;;;6.30;1.60;;;17.10;99.90;;;;;;5047490;28;20492;-76
2022/09/14 07:06:09;;;;;;;7.03;1.77;;;17.10;99.90;;;;;;5044796;28;20592;-76
2022/09/14 07:08:36;;;;;;;4.53;1.48;;;17.10;99.90;;;;;;5041979;28;20520;-76
2022/09/14 07:11:03;;;;;;;5.53;1.60;;;17.20;99.90;;;;;;5046491;28;20439;-77
2022/09/14 07:13:30;;;;;;;6.35;2.10;;;17.20;99.90;;;;;;5044297;28;20392;-76
2022/09/14 07:15:56;;;;;;;6.43;1.60;;;17.20;99.90;;;;;;5050457;28;20025;-78
2022/09/14 07:18:31;;;;;;;8.75;1.90;;;17.20;99.90;;;;;;5050767;28;20041;-76
2022/09/14 07:21:16;;;;;;;6.47;1.73;;;17.20;99.90;;;;;;5044809;28;20027;-76
2022/09/14 07:23:44;;;;;;;5.53;1.40;;;17.20;99.90;;;;;;5026432;28;20604;-77
2022/09/14 07:26:15;;;;;;;4.90;1.23;;;17.20;99.90;;;;;;5031681;28;20068;-77
2022/09/14 07:28:43;;;;;;;8.68;1.67;;;17.20;99.90;;;;;;5032277;28;20413;-76
2022/09/14 07:31:18;;;;;;;4.80;1.33;;;17.20;99.90;;;;;;5033700;28;20037;-77
2022/09/14 07:33:44;;;;;;;5.93;1.40;;;17.20;99.90;;;;;;5033368;28;20382;-77
2022/09/14 07:36:11;;;;;;;5.40;1.88;;;17.20;99.90;;;;;;5032893;28;20018;-77
2022/09/14 07:38:37;;;;;;;9.25;1.50;;;17.30;99.90;;;;;;5037554;28;20024;-76
2022/09/14 07:41:03;;;;;;;11.30;1.65;;;17.30;99.90;;;;;;5039572;28;20095;-77
2022/09/14 07:43:29;;;;;;;7.50;1.70;;;17.30;99.90;;;;;;5036572;28;20024;-75
2022/09/14 07:45:55;;;;;;;8.70;1.50;;;17.30;99.90;;;;;;5052487;28;20052;-77
2022/09/14 07:48:21;;;;;;;6.28;1.55;;;17.30;99.90;;;;;;5046203;28;20022;-75
2022/09/14 07:50:47;;;;;;;9.80;1.85;;;17.30;99.90;;;;;;5052248;28;20049;-74
2022/09/14 07:53:13;;;;;;;7.07;1.88;;;17.30;99.90;;;;;;5038742;28;20033;-74
2022/09/14 07:55:39;;;;;;;8.40;1.70;;;17.30;99.90;;;;;;5024426;28;20083;-75
2022/09/14 07:58:06;;;;;;;9.02;1.95;;;17.30;99.90;;;;;;5042970;28;20470;-75
2022/09/14 08:00:32;;;;;;;7.28;1.90;;;17.30;99.90;;;;;;5038171;28;20517;-75
2022/09/14 08:02:58;;;;;;;6.47;1.73;;;17.40;99.90;;;;;;5049680;28;20037;-75
2022/09/14 08:05:24;;;;;;;6.60;1.52;;;17.40;99.90;;;;;;5051857;28;20025;-75
2022/09/14 08:07:56;;;;;;;10.43;1.83;;;17.40;99.90;;;;;;5052102;28;20025;-76
2022/09/14 08:10:23;;;;;;;5.97;1.73;;;17.50;99.90;;;;;;5051940;28;20033;-77
2022/09/14 08:12:50;;;;;;;5.00;1.65;;;17.50;99.90;;;;;;5043708;28;20044;-75
2022/09/14 08:15:17;;;;;;;5.78;1.75;;;17.50;99.90;;;;;;5032965;28;20057;-76
2022/09/14 08:17:42;;;;;;;6.88;1.98;;;17.50;99.90;;;;;;5042718;28;20404;-76
2022/09/14 08:20:08;;;;;;;7.97;2.17;;;17.60;99.90;;;;;;5039675;28;20022;-75
2022/09/14 08:22:34;;;;;;;5.38;1.80;;;17.60;99.90;;;;;;5031644;28;20014;-75
2022/09/14 08:24:59;;;;;;;6.57;1.80;;;17.70;99.90;;;;;;5033919;28;20108;-76
2022/09/14 08:27:25;;;;;;;10.70;2.03;;;17.70;99.90;;;;;;5031396;28;20025;-76
2022/09/14 08:29:50;;;;;;;9.65;2.00;;;17.70;99.90;;;;;;5031174;28;20039;-77
2022/09/14 08:32:16;;;;;;;5.22;1.73;;;17.70;99.90;;;;;;5030618;28;20057;-77
2022/09/14 08:34:41;;;;;;;8.18;2.13;;;17.80;99.90;;;;;;5036532;28;20465;-76
2022/09/14 08:37:09;;;;;;;6.43;2.10;;;17.80;99.90;;;;;;5043780;28;20098;-75
2022/09/14 08:39:35;;;;;;;10.05;2.67;;;17.90;99.90;;;;;;5041479;28;20041;-76
2022/09/14 08:42:04;;;;;;;8.18;2.60;;;17.90;99.90;;;;;;5040512;28;20053;-75
2022/09/14 08:44:41;;;;;;;9.38;2.72;;;18.00;99.90;;;;;;5031064;28;20025;-75
2022/09/14 08:47:18;;;;;;;4.93;2.45;;;18.00;99.90;;;;;;5043649;28;20437;-75
2022/09/14 08:50:05;;;;;;;6.97;2.80;;;18.00;99.90;;;;;;5050400;28;20053;-75
2022/09/14 08:52:33;;;;;;;9.50;2.38;;;18.10;99.90;;;;;;5045016;28;20100;-75
2022/09/14 08:55:00;;;;;;;10.05;2.30;;;18.10;99.90;;;;;;5048924;28;20048;-74
2022/09/14 08:57:41;;;;;;;12.25;2.50;;;18.10;99.90;;;;;;5033544;28;20073;-75
2022/09/14 09:00:16;;;;;;;8.77;2.22;;;18.10;99.90;;;;;;5030896;28;20025;-74
2022/09/14 09:03:11;;;;;;;9.93;2.35;;;18.10;99.90;;;;;;5031316;28;20035;-75
2022/09/14 09:05:45;;;;;;;9.40;2.67;;;18.10;99.90;;;;;;5025167;28;20034;-75
2022/09/14 09:08:37;;;;;;;7.80;2.20;;;18.10;99.90;;;;;;5029707;28;20558;-75
2022/09/14 09:11:06;;;;;;;7.75;2.25;;;18.10;99.90;;;;;;5028747;28;20685;-75
2022/09/14 09:13:34;;;;;;;9.10;2.13;;;18.10;99.90;;;;;;5034650;28;20481;-74
2022/09/14 09:16:03;;;;;;;7.60;2.50;;;18.10;99.90;;;;;;5035218;28;20017;-75
2022/09/14 09:18:31;;;;;;;7.63;2.30;;;18.20;99.90;;;;;;5041413;28;20091;-75
2022/09/14 09:21:03;;;;;;;7.03;2.33;;;18.20;99.90;;;;;;5041550;28;20448;-75
2022/09/14 09:23:32;;;;;;;8.93;2.30;;;18.20;99.90;;;;;;5041591;28;20471;-75
2022/09/14 09:26:28;;;;;;;11.75;2.63;;;18.20;99.90;;;;;;5032676;28;20112;-77
2022/09/14 09:28:55;;;;;;;;;;;18.30;99.90;;;;;;5028094;28;20080;-77
2022/09/14 09:31:33;;;;;;;7.90;2.30;;;18.20;99.90;;;;;;5029867;28;19996;-77
2022/09/14 09:34:00;;;;;;;10.18;2.33;;;18.30;99.90;;;;;;5030756;28;20027;-76
2022/09/14 09:36:30;;;;;;;5.72;1.67;;;18.30;99.90;;;;;;5034105;28;20037;-76
2022/09/14 09:38:58;;;;;;;11.07;2.05;;;18.30;99.90;;;;;;5045385;28;20056;-77
2022/09/14 09:41:28;;;;;;;13.85;2.30;;;18.30;99.90;;;;;;5037280;28;20347;-76
2022/09/14 09:43:59;;;;;;;9.70;2.00;;;18.40;99.90;;;;;;5036998;28;20089;-77
2022/09/14 09:46:59;;;;;;;7.95;1.88;;;18.40;99.90;;;;;;5050156;28;20056;-76
2022/09/14 09:49:35;;;;;;;6.75;2.25;;;18.40;99.90;;;;;;5029305;28;20047;-77
2022/09/14 09:52:11;;;;;;;7.80;2.00;;;18.40;99.90;;;;;;5034479;28;20474;-77
2022/09/14 09:54:38;;;;;;;5.60;1.90;;;18.40;99.90;;;;;;5032941;28;20433;-77
2022/09/14 09:57:18;;;;;;;6.72;1.90;;;18.30;99.90;;;;;;5046148;28;20040;-76
2022/09/14 09:59:45;;;;;;;8.45;1.77;;;18.40;99.90;;;;;;5034721;28;20392;-77
2022/09/14 10:02:30;;;;;;;6.53;2.00;;;18.40;99.90;;;;;;5036514;28;20016;-76
2022/09/14 10:05:05;;;;;;;5.43;1.70;;;18.50;99.90;;;;;;5043331;28;20049;-76
2022/09/14 10:07:34;;;;;;;6.88;1.60;;;18.50;99.90;;;;;;5047495;28;20108;-76
2022/09/14 10:10:03;;;;;;;6.20;1.63;;;18.60;99.90;;;;;;5043665;28;20021;-77
2022/09/14 10:12:29;;;;;;;6.97;1.80;;;18.60;99.90;;;;;;5040755;28;20092;-77
2022/09/14 10:15:35;;;;;;;8.73;2.10;;;18.70;99.90;;;;;;5031324;28;20111;-76
2022/09/14 10:18:13;;;;;;;4.38;1.52;;;18.70;99.90;;;;;;5026967;28;20038;-77
2022/09/14 10:20:58;;;;;;;4.32;1.25;;;18.70;99.90;;;;;;5029946;28;20066;-76
2022/09/14 10:23:27;;;;;;;7.45;1.70;;;18.70;99.90;;;;;;5035309;28;20436;-77
2022/09/14 10:26:13;;;;;;;7.60;1.45;;;18.70;99.90;;;;;;5045009;28;20094;-77
2022/09/14 10:28:38;;;;;;;;;;;18.70;99.90;;;;;;5034743;28;20026;-77
2022/09/14 10:31:13;;;;;;;7.25;1.63;;;18.70;99.90;;;;;;5028965;28;19912;-77
2022/09/14 10:33:39;;;;;;;7.22;1.65;;;18.70;99.90;;;;;;5025661;28;20453;-77
2022/09/14 10:36:16;;;;;;;6.70;1.70;;;18.80;99.90;;;;;;5024811;28;20076;-76
2022/09/14 10:38:52;;;;;;;7.30;1.85;;;18.90;99.90;;;;;;5029630;28;20048;-77
2022/09/14 10:41:24;;;;;;;6.32;1.85;;;18.90;99.90;;;;;;5031123;28;20030;-77
2022/09/14 10:44:01;;;;;;;4.72;1.50;;;18.90;99.90;;;;;;5031914;28;20022;-76
2022/09/14 10:46:33;;;;;;;6.40;1.80;;;19.00;99.90;;;;;;5032618;28;20083;-77
2022/09/14 10:49:39;;;;;;;8.30;1.90;;;19.00;99.90;;;;;;5032931;28;20373;-77
2022/09/14 10:52:24;;;;;;;5.78;1.58;;;19.10;99.90;;;;;;5028010;28;20437;-76
2022/09/14 10:54:56;;;;;;;7.80;1.60;;;19.10;99.90;;;;;;5032744;28;20076;-76
2022/09/14 10:57:47;;;;;;;5.50;1.80;;;19.10;99.90;;;;;;5030911;28;20038;-75
2022/09/14 11:00:18;;;;;;;6.28;2.00;;;19.10;99.90;;;;;;5032899;28;20421;-76
2022/09/14 11:02:50;;;;;;;8.70;2.08;;;19.20;99.90;;;;;;5033271;28;20485;-77
2022/09/14 11:05:36;;;;;;;4.45;1.90;;;19.20;99.90;;;;;;5032632;28;20254;-77
2022/09/14 11:08:26;;;;;;;7.03;2.03;;;19.30;99.90;;;;;;5032712;28;20108;-77
2022/09/14 11:11:21;;;;;;;6.13;1.75;;;19.30;99.90;;;;;;5034189;28;20675;-77
2022/09/14 11:14:01;;;;;;;4.43;1.90;;;19.40;99.90;;;;;;5046657;28;20060;-76
2022/09/14 11:17:02;;;;;;;5.40;1.90;;;19.40;99.90;;;;;;5033452;28;20658;-77
2022/09/14 11:19:51;;;;;;;4.85;1.85;;;19.50;99.90;;;;;;5024884;28;20044;-76
2022/09/14 11:22:38;;;;;;;9.35;1.83;;;19.60;99.90;;;;;;5040546;28;20021;-76
2022/09/14 11:25:10;;;;;;;6.68;1.98;;;19.70;99.90;;;;;;5034202;28;20021;-76
2022/09/14 11:27:50;;;;;;;7.30;1.75;;;19.70;99.90;;;;;;5034438;28;20022;-75
2022/09/14 11:30:21;;;;;;;8.70;1.90;;;19.80;99.90;;;;;;5033303;28;20117;-77
2022/09/14 11:32:54;;;;;;;9.05;2.45;;;19.80;99.90;;;;;;5032408;28;20033;-76
2022/09/14 11:35:38;;;;;;;10.55;2.33;;;19.90;99.90;;;;;;5032308;28;20031;-76
2022/09/14 11:38:19;;;;;;;6.53;2.20;;;19.90;99.90;;;;;;5032511;28;20478;-76
2022/09/14 11:41:04;;;;;;;7.45;2.10;;;20.00;99.90;;;;;;5032301;28;20036;-76
2022/09/14 11:44:01;;;;;;;5.82;2.08;;;20.10;99.90;;;;;;5020796;28;20024;-76
2022/09/14 11:46:31;;;;;;;8.20;2.00;;;20.20;99.90;;;;;;5052416;28;20516;-76
2022/09/14 11:49:15;;;;;;;9.00;2.65;;;20.20;99.90;;;;;;5048427;28;20152;-77
2022/09/14 11:51:52;;;;;;;7.00;2.08;;;20.30;99.90;;;;;;5054878;28;20512;-76
2022/09/14 11:54:19;;;;;;;7.70;1.70;;;20.40;99.90;;;;;;5052196;28;20032;-76
2022/09/14 11:56:51;;;;;;;5.32;1.85;;;20.40;99.90;;;;;;5036760;28;20033;-76
2022/09/14 11:59:38;;;;;;;8.45;2.25;;;20.50;99.90;;;;;;5040343;28;20508;-76
2022/09/14 12:02:22;;;;;;;3.25;1.50;;;20.60;99.90;;;;;;5050903;28;20480;-76
2022/09/14 12:05:09;;;;;;;8.40;2.20;;;20.70;99.90;;;;;;5040313;28;20059;-75
2022/09/14 12:07:44;;;;;;;11.05;2.53;;;20.80;99.90;;;;;;5025920;28;20037;-76
2022/09/14 12:10:12;;;;;;;;;;;20.90;99.90;;;;;;5041999;28;20029;-77
2022/09/14 12:13:02;;;;;;;6.55;2.20;;;20.90;99.90;;;;;;5039954;28;19913;-76
2022/09/14 12:15:28;;;;;;;6.88;1.65;;;20.90;99.90;;;;;;5026570;28;20041;-76
2022/09/14 12:18:06;;;;;;;10.15;1.90;;;21.00;99.90;;;;;;5032084;28;20029;-76
2022/09/14 12:20:37;;;;;;;7.97;1.80;;;21.00;99.90;;;;;;5031722;28;20017;-77
2022/09/14 12:23:25;;;;;;;6.68;2.13;;;21.10;99.90;;;;;;5031605;28;20026;-77
2022/09/14 12:25:57;;;;;;;11.02;2.30;;;21.20;99.90;;;;;;5031747;28;20444;-77
2022/09/14 12:28:37;;;;;;;6.32;1.65;;;21.30;99.90;;;;;;5031613;28;20029;-76
2022/09/14 12:31:03;;;;;;;6.88;1.90;;;21.40;99.90;;;;;;5029212;28;20060;-76
2022/09/14 12:33:32;;;;;;;4.22;1.30;;;21.50;99.90;;;;;;5030067;28;20075;-76
2022/09/14 12:36:04;;;;;;;8.07;1.90;;;21.50;99.90;;;;;;5031214;28;20025;-76
2022/09/14 12:38:29;;;;;;;7.07;1.90;;;21.60;99.90;;;;;;5031596;28;20532;-76
2022/09/14 12:41:00;;;;;;;7.00;1.60;;;21.70;99.90;;;;;;5030935;28;20022;-76
2022/09/14 12:43:32;;;;;;;7.03;2.03;;;21.90;99.90;;;;;;5035278;28;20381;-76
2022/09/14 12:46:22;;;;;;;9.55;2.05;;;22.00;99.90;;;;;;5051579;28;20469;-76
2022/09/14 12:48:54;;;;;;;8.80;1.92;;;22.20;99.90;;;;;;5047012;28;20045;-76
2022/09/14 12:51:25;;;;;;;5.47;1.60;;;22.20;99.90;;;;;;5051403;28;20021;-76
2022/09/14 12:54:06;;;;;;;7.97;1.85;;;22.30;99.90;;;;;;5045781;28;20024;-75
2022/09/14 12:57:00;;;;;;;6.20;1.90;;;22.40;99.90;;;;;;5033936;28;20037;-76
2022/09/14 12:59:44;;;;;;;7.38;1.70;;;22.50;99.90;;;;;;5037999;28;20469;-75
2022/09/14 13:02:30;;;;;;;7.38;1.80;;;22.50;99.90;;;;;;5032582;28;20416;-76
2022/09/14 13:04:57;;;;;;;5.60;2.00;;;22.60;99.90;;;;;;5042980;28;20527;-74
2022/09/14 13:07:28;;;;;;;6.72;1.88;;;22.60;99.90;;;;;;5039315;28;20052;-74
2022/09/14 13:09:56;;;;;;;6.85;1.60;;;22.60;99.90;;;;;;5039024;28;20068;-74